Bookmark and Share
Track history (hours):
 

Bootsie B,

More information available from US FCC via Universal Licensing System and Coast Guard Vessel Documentation Center.

Last reported at 2014-Apr-14 10:30 UTC. Time now 2014-Apr-20 21:05 UTC.
Position N 30°04' W 090°53'.

Length 57 m; draft 2 m.

Type: Towing. MMSI: 367505630.

NotesDate/timePositionNaut miles runAvg speedWind from/ knotsBaromVisibWave heightAir tempDewpointWater temp
2014-Apr-14 10:30N 30°04' W 090°53'6 0.5
2014-Apr-13 21:20N 30°00' W 090°47'3 4.4
2014-Apr-13 20:33N 30°01' W 090°43'4 4.3
2014-Apr-13 19:33N 30°03' W 090°38'0 0.5
2014-Apr-13 18:33N 30°02' W 090°38'0 0.0
2014-Apr-13 17:33N 30°02' W 090°38'0 0.0
2014-Apr-13 16:33N 30°02' W 090°38'0 0.1
2014-Apr-13 15:33N 30°02' W 090°38'1 1.3
2014-Apr-13 14:27N 30°02' W 090°36'0 0.0
2014-Apr-13 13:32N 30°02' W 090°36'0 0.0
2014-Apr-13 12:33N 30°02' W 090°36'0 0.0
2014-Apr-13 11:33N 30°02' W 090°36'0 0.0
2014-Apr-13 10:33N 30°02' W 090°36'0 0.0
2014-Apr-13 09:33N 30°02' W 090°36'0 0.0
2014-Apr-13 08:33N 30°02' W 090°36'0 0.0
2014-Apr-13 07:33N 30°02' W 090°36'0 0.0
2014-Apr-13 06:33N 30°02' W 090°36'0 0.0
2014-Apr-13 05:33N 30°02' W 090°36'0 0.0
2014-Apr-13 04:33N 30°02' W 090°36'0 0.0
2014-Apr-13 03:33N 30°02' W 090°36'0 0.0
2014-Apr-13 02:33N 30°02' W 090°36'0 0.0
2014-Apr-13 01:33N 30°02' W 090°36'0 0.0
2014-Apr-13 00:33N 30°02' W 090°36'0 0.0
2014-Apr-12 23:33N 30°02' W 090°36'0 0.0
2014-Apr-12 22:33N 30°02' W 090°36'0 0.0
2014-Apr-12 21:33N 30°02' W 090°36'0 0.0
2014-Apr-12 20:33N 30°02' W 090°36'1 0.5
2014-Apr-12 19:33N 30°03' W 090°36'4 3.7
2014-Apr-12 18:33N 30°03' W 090°32'0 0.2
2014-Apr-12 17:33N 30°03' W 090°31'0 0.0
2014-Apr-12 16:33N 30°03' W 090°31'0 0.0
2014-Apr-12 15:33N 30°03' W 090°31'0 0.0
2014-Apr-12 14:32N 30°03' W 090°31'0 0.0
2014-Apr-12 13:33N 30°03' W 090°31'0 0.0
2014-Apr-12 12:33N 30°03' W 090°31'0 0.0
2014-Apr-12 11:33N 30°03' W 090°31'0 0.0
2014-Apr-12 10:33N 30°03' W 090°31'0 0.0
2014-Apr-12 09:33N 30°03' W 090°31'0 0.0
2014-Apr-12 08:33N 30°03' W 090°31'0 0.0
2014-Apr-12 07:33N 30°03' W 090°31'0 0.0
2014-Apr-12 06:33N 30°03' W 090°31'2 1.9
2014-Apr-12 05:33N 30°03' W 090°29'1 1.5
2014-Apr-12 04:33N 30°02' W 090°28'0 0.0
2014-Apr-12 03:33N 30°02' W 090°28'0 0.0
2014-Apr-12 02:33N 30°02' W 090°28'0 0.0
2014-Apr-12 01:33N 30°02' W 090°28'0 0.0
2014-Apr-12 00:33N 30°02' W 090°28'2 2.2
2014-Apr-11 23:33N 29°60' W 090°27'4 0.3
2014-Apr-11 12:24N 29°58' W 090°24'0 0.0
2014-Apr-11 11:33N 29°58' W 090°24'0 0.0
2014-Apr-11 10:25N 29°58' W 090°24'0 0.0
2014-Apr-11 08:30N 29°58' W 090°24'0 0.0
2014-Apr-11 07:31N 29°58' W 090°24'0 0.0
2014-Apr-11 06:33N 29°58' W 090°24'0 0.0
2014-Apr-11 05:33N 29°58' W 090°24'0 0.0
2014-Apr-11 04:32N 29°58' W 090°24'0 0.0
2014-Apr-11 03:33N 29°58' W 090°24'0 0.0
2014-Apr-11 02:31N 29°58' W 090°24'0 0.0
2014-Apr-11 01:31N 29°58' W 090°24'3 2.8
2014-Apr-11 00:33N 29°60' W 090°26'3 2.8
2014-Apr-10 23:33N 30°02' W 090°28'4 0.7
2014-Apr-10 17:33N 30°03' W 090°33'1 1.3
2014-Apr-10 16:33N 30°03' W 090°34'0 0.0
2014-Apr-10 15:33N 30°03' W 090°34'0 0.0
2014-Apr-10 14:33N 30°03' W 090°34'0 0.0
2014-Apr-10 13:33N 30°03' W 090°34'0 0.0
2014-Apr-10 12:33N 30°03' W 090°34'0 0.0
2014-Apr-10 11:33N 30°03' W 090°34'0 0.0
2014-Apr-10 10:33N 30°03' W 090°34'0 0.0
2014-Apr-10 09:33N 30°03' W 090°34'0 0.0
2014-Apr-10 08:33N 30°03' W 090°34'0 0.0
2014-Apr-10 07:33N 30°03' W 090°34'0 0.0
2014-Apr-10 06:33N 30°03' W 090°34'0 0.0
2014-Apr-10 05:33N 30°03' W 090°34'1 0.5
2014-Apr-10 04:33N 30°03' W 090°35'8 7.7
2014-Apr-10 03:33N 30°01' W 090°43'6 5.5
2014-Apr-10 02:28N 30°01' W 090°50'5 5.3
2014-Apr-10 01:29N 30°05' W 090°55'  

Dump ship's entire track history

sailing weather and tide predictions

Bootsie B, — WDF9484 — position and weather